Time;durP1;ratioP1;P1;durP2;ratioP2;P2;SDS_P1;SDS_P2;PMS_P1;PMS_P2;Temp;Humidity;BMP_temperature;BMP_pressure;BME280_temperature;BME280_humidity;BME280_pressure;Samples;Min_cycle;Max_cycle;Signal;HPM_P1;HPM_P2
2022/11/16 00:01:15;;;;;;;7.57;5.17;;;11.10;99.90;;;;;;5096096;28;20673;-79
2022/11/16 00:03:42;;;;;;;10.00;5.53;;;11.20;99.90;;;;;;5095558;28;20197;-78
2022/11/16 00:06:11;;;;;;;8.73;5.57;;;11.10;99.90;;;;;;5096870;28;20209;-78
2022/11/16 00:08:42;;;;;;;8.73;5.57;;;11.20;99.90;;;;;;5111452;28;20708;-78
2022/11/16 00:11:10;;;;;;;7.90;5.40;;;11.30;99.90;;;;;;5094903;28;20205;-78
2022/11/16 00:13:38;;;;;;;8.87;5.43;;;11.30;99.90;;;;;;5095789;28;20284;-78
2022/11/16 00:16:06;;;;;;;9.20;5.30;;;11.30;99.90;;;;;;5093955;28;20279;-79
2022/11/16 00:18:34;;;;;;;8.43;5.33;;;11.30;99.90;;;;;;5096009;28;20304;-78
2022/11/16 00:21:04;;;;;;;11.83;5.73;;;11.30;99.90;;;;;;5095315;28;20198;-78
2022/11/16 00:23:31;;;;;;;8.20;5.47;;;11.30;99.90;;;;;;5095076;28;20205;-78
2022/11/16 00:26:02;;;;;;;7.93;5.03;;;11.20;99.90;;;;;;5095068;28;20205;-78
2022/11/16 00:28:29;;;;;;;9.80;5.40;;;11.20;99.90;;;;;;5084948;28;20752;-78
2022/11/16 00:30:59;;;;;;;8.13;5.53;;;11.10;99.90;;;;;;5075818;28;20206;-78
2022/11/16 00:33:25;;;;;;;8.97;5.53;;;11.00;99.90;;;;;;5074152;28;20202;-78
2022/11/16 00:35:54;;;;;;;9.60;5.90;;;11.10;99.90;;;;;;5074606;28;20218;-78
2022/11/16 00:38:21;;;;;;;10.00;5.87;;;11.20;99.90;;;;;;5086289;28;20231;-78
2022/11/16 00:40:47;;;;;;;11.63;5.90;;;11.20;99.90;;;;;;5116235;28;20291;-78
2022/11/16 00:43:14;;;;;;;9.23;6.03;;;11.00;99.90;;;;;;5115421;28;20201;-78
2022/11/16 00:45:42;;;;;;;9.90;5.87;;;11.10;99.90;;;;;;5107596;28;20293;-78
2022/11/16 00:48:09;;;;;;;10.03;6.43;;;10.90;99.90;;;;;;5096563;28;20694;-78
2022/11/16 00:50:36;;;;;;;11.20;6.07;;;10.70;99.90;;;;;;5093980;28;20201;-78
2022/11/16 00:53:04;;;;;;;10.43;5.80;;;10.70;99.90;;;;;;5094653;28;20285;-78
2022/11/16 00:55:31;;;;;;;10.53;6.40;;;10.70;99.90;;;;;;5094882;28;20210;-78
2022/11/16 00:57:58;;;;;;;8.17;5.97;;;10.70;99.90;;;;;;5093987;28;20304;-78
2022/11/16 01:00:25;;;;;;;10.70;6.40;;;10.70;99.90;;;;;;5095203;28;20291;-78
2022/11/16 01:02:53;;;;;;;9.30;5.70;;;10.80;99.90;;;;;;5093661;28;20251;-78
2022/11/16 01:05:20;;;;;;;8.27;5.60;;;10.60;99.90;;;;;;5095157;28;20213;-78
2022/11/16 01:07:47;;;;;;;7.43;5.17;;;10.70;99.90;;;;;;5075223;28;20229;-78
2022/11/16 01:10:18;;;;;;;9.77;6.13;;;10.70;99.90;;;;;;5096146;28;20248;-78
2022/11/16 01:12:44;;;;;;;12.37;5.73;;;10.70;99.90;;;;;;5107765;28;20658;-78
2022/11/16 01:15:11;;;;;;;10.10;6.47;;;10.60;99.90;;;;;;5093956;28;20204;-78
2022/11/16 01:17:39;;;;;;;11.60;6.23;;;10.60;99.90;;;;;;5095197;28;20225;-78
2022/11/16 01:20:10;;;;;;;9.70;6.13;;;10.60;99.90;;;;;;5094718;28;20300;-78
2022/11/16 01:22:38;;;;;;;10.97;6.07;;;10.50;99.90;;;;;;5094878;28;20205;-78
2022/11/16 01:25:06;;;;;;;9.80;6.30;;;10.50;99.90;;;;;;5092528;28;20201;-78
2022/11/16 01:27:34;;;;;;;9.47;5.83;;;10.50;99.90;;;;;;5094151;28;20317;-78
2022/11/16 01:30:01;;;;;;;12.97;6.47;;;10.50;99.90;;;;;;5090776;28;20305;-78
2022/11/16 01:32:28;;;;;;;11.37;5.93;;;10.50;99.90;;;;;;5095842;28;20202;-79
2022/11/16 01:34:55;;;;;;;7.57;6.17;;;10.50;99.90;;;;;;5099075;28;20261;-78
2022/11/16 01:37:21;;;;;;;6.83;5.13;;;10.50;99.90;;;;;;5092107;28;20230;-78
2022/11/16 01:39:49;;;;;;;8.77;5.40;;;10.50;99.90;;;;;;5094169;28;20200;-78
2022/11/16 01:42:18;;;;;;;8.47;5.40;;;10.40;99.90;;;;;;5093874;28;20194;-79
2022/11/16 01:45:00;;;;;;;11.07;5.57;;;10.40;99.90;;;;;;5094930;28;20212;-78
2022/11/16 01:47:27;;;;;;;8.90;5.17;;;10.40;99.90;;;;;;5093239;28;20209;-78
2022/11/16 01:49:59;;;;;;;7.67;5.67;;;10.30;99.90;;;;;;5094246;28;20212;-78
2022/11/16 01:52:30;;;;;;;10.00;5.60;;;10.30;99.90;;;;;;5092155;28;20202;-78
2022/11/16 01:54:57;;;;;;;8.80;6.27;;;10.20;99.90;;;;;;5094580;28;20190;-78
2022/11/16 01:57:28;;;;;;;11.37;6.47;;;10.10;99.90;;;;;;5092167;28;20240;-78
2022/11/16 01:59:59;;;;;;;11.13;6.53;;;10.10;99.90;;;;;;5078529;28;20673;-78
2022/11/16 02:02:26;;;;;;;11.23;6.43;;;10.10;99.90;;;;;;5073830;28;20662;-78
2022/11/16 02:04:55;;;;;;;17.43;7.33;;;10.10;99.90;;;;;;5074062;28;20203;-78
2022/11/16 02:07:30;;;;;;;10.07;7.00;;;10.10;99.90;;;;;;5073957;28;20225;-78
2022/11/16 02:10:09;;;;;;;12.33;6.77;;;10.10;99.90;;;;;;5093978;28;20197;-78
2022/11/16 02:13:10;;;;;;;10.13;6.73;;;10.20;99.90;;;;;;5091501;28;20283;-78
2022/11/16 02:15:41;;;;;;;12.10;7.37;;;10.20;99.90;;;;;;5080676;28;20228;-78
2022/11/16 02:18:20;;;;;;;13.60;7.50;;;10.20;99.90;;;;;;5092980;28;20304;-78
2022/11/16 02:21:09;;;;;;;12.73;7.20;;;10.20;99.90;;;;;;5093911;28;20204;-78
2022/11/16 02:24:15;;;;;;;12.23;7.23;;;10.30;99.90;;;;;;5086866;28;20233;-78
2022/11/16 02:27:02;;;;;;;13.43;7.77;;;10.20;99.90;;;;;;5073353;28;20662;-78
2022/11/16 02:29:35;;;;;;;12.23;7.07;;;10.20;99.90;;;;;;5098593;28;20284;-78
2022/11/16 02:32:07;;;;;;;15.57;7.73;;;10.30;99.90;;;;;;5109918;28;20288;-78
2022/11/16 02:34:38;;;;;;;15.57;7.80;;;10.20;99.90;;;;;;5080663;28;20202;-78
2022/11/16 02:37:08;;;;;;;14.00;7.97;;;10.20;99.90;;;;;;5081060;28;20221;-78
2022/11/16 02:39:38;;;;;;;12.43;7.23;;;10.20;99.90;;;;;;5113013;28;20201;-78
2022/11/16 02:42:11;;;;;;;14.77;7.77;;;10.10;99.90;;;;;;5113816;28;20200;-78
2022/11/16 02:44:43;;;;;;;13.67;7.80;;;10.10;99.90;;;;;;5113638;28;20543;-78
2022/11/16 02:47:16;;;;;;;12.30;7.43;;;10.10;99.90;;;;;;5112961;28;20219;-78
2022/11/16 02:49:48;;;;;;;14.40;8.07;;;10.10;99.90;;;;;;5094588;28;20209;-78
2022/11/16 02:52:16;;;;;;;13.63;7.30;;;10.10;99.90;;;;;;5109043;28;20193;-79
2022/11/16 02:54:43;;;;;;;13.57;8.00;;;10.10;99.90;;;;;;5073016;28;20290;-78
2022/11/16 02:57:46;;;;;;;11.17;7.50;;;10.20;99.90;;;;;;5085668;28;20225;-78
2022/11/16 03:00:20;;;;;;;10.23;7.03;;;10.10;99.90;;;;;;5096428;28;20226;-78
2022/11/16 03:02:56;;;;;;;12.80;7.07;;;10.10;99.90;;;;;;5092151;28;20272;-79
2022/11/16 03:05:31;;;;;;;14.00;7.47;;;10.20;99.90;;;;;;5093141;28;20203;-78
2022/11/16 03:08:07;;;;;;;12.50;7.20;;;10.10;99.90;;;;;;5088995;28;20220;-79
2022/11/16 03:13:24;;;;;;;12.13;7.63;;;10.00;99.90;;;;;;5091797;28;20208;-78
2022/11/16 03:15:55;;;;;;;11.50;7.50;;;10.00;99.90;;;;;;5093205;28;20203;-79
2022/11/16 03:18:25;;;;;;;12.13;7.70;;;9.90;99.90;;;;;;5095657;28;20273;-78
2022/11/16 03:20:58;;;;;;;13.23;7.40;;;9.90;99.90;;;;;;5113661;28;20281;-78
2022/11/16 03:23:24;;;;;;;13.10;7.43;;;9.80;99.90;;;;;;5108012;28;20196;-78
2022/11/16 03:25:55;;;;;;;14.00;8.23;;;9.60;99.90;;;;;;5091086;28;20220;-78
2022/11/16 03:28:28;;;;;;;13.80;8.03;;;9.60;99.90;;;;;;5098674;28;20228;-78
2022/11/16 03:31:01;;;;;;;15.20;8.10;;;9.50;99.90;;;;;;5093464;28;20258;-78
2022/11/16 03:33:31;;;;;;;12.90;8.30;;;9.50;99.90;;;;;;5092608;28;20233;-78
2022/11/16 03:36:03;;;;;;;14.97;8.27;;;9.50;99.90;;;;;;5091853;28;20300;-78
2022/11/16 03:38:33;;;;;;;14.53;8.07;;;9.60;99.90;;;;;;5092429;28;20312;-78
2022/11/16 03:41:03;;;;;;;14.77;8.53;;;9.70;99.90;;;;;;5092438;28;20212;-78
2022/11/16 03:43:31;;;;;;;13.93;8.47;;;9.60;99.90;;;;;;5109470;28;20203;-78
2022/11/16 03:45:59;;;;;;;14.37;8.73;;;9.60;99.90;;;;;;5109317;28;20640;-78
2022/11/16 03:48:34;;;;;;;14.47;8.60;;;9.60;99.90;;;;;;5095792;28;20575;-78
2022/11/16 03:51:01;;;;;;;15.47;8.73;;;9.60;99.90;;;;;;5095284;28;20573;-78
2022/11/16 03:53:27;;;;;;;15.10;9.63;;;9.60;99.90;;;;;;5083401;28;20201;-78
2022/11/16 03:55:54;;;;;;;15.17;8.53;;;9.70;99.90;;;;;;5091925;28;20212;-78
2022/11/16 03:58:21;;;;;;;14.47;8.37;;;9.70;99.90;;;;;;5092977;28;20330;-78
2022/11/16 04:00:48;;;;;;;13.70;8.53;;;9.70;99.90;;;;;;5080975;28;20579;-78
2022/11/16 04:03:16;;;;;;;17.60;8.37;;;9.70;99.90;;;;;;5108832;28;20662;-78
2022/11/16 04:25:04;;;;;;;15.47;8.97;;;10.00;99.90;;;;;;5097763;28;20204;-78
2022/11/16 04:30:16;;;;;;;13.30;7.80;;;10.00;99.90;;;;;;5116353;28;20212;-78
2022/11/16 04:38:12;;;;;;;15.73;8.40;;;10.00;99.90;;;;;;5116199;28;20270;-78
2022/11/16 04:40:39;;;;;;;16.83;9.40;;;9.90;99.90;;;;;;5116360;28;20200;-78
2022/11/16 04:43:06;;;;;;;16.77;9.63;;;9.80;99.90;;;;;;5115987;28;20197;-78
2022/11/16 04:48:19;;;;;;;19.30;10.70;;;9.70;99.90;;;;;;5116148;28;20266;-78
2022/11/16 04:50:48;;;;;;;16.43;10.00;;;9.70;99.90;;;;;;5115716;28;20197;-78
2022/11/16 04:53:15;;;;;;;18.77;11.33;;;9.70;99.90;;;;;;5106311;28;20215;-78
2022/11/16 04:55:41;;;;;;;20.53;11.73;;;9.60;99.90;;;;;;5108619;28;20641;-78
2022/11/16 04:58:08;;;;;;;20.20;11.67;;;9.60;99.90;;;;;;5099711;28;20707;-78
2022/11/16 05:00:35;;;;;;;24.60;12.40;;;9.60;99.90;;;;;;5095944;28;20197;-78
2022/11/16 05:03:03;;;;;;;21.67;12.37;;;9.50;99.90;;;;;;5099114;28;20858;-78
2022/11/16 05:05:30;;;;;;;23.30;14.13;;;9.40;99.90;;;;;;5105978;28;20198;-78
2022/11/16 05:07:58;;;;;;;24.93;13.43;;;9.40;99.90;;;;;;5095221;28;20217;-78
2022/11/16 05:10:25;;;;;;;23.77;13.67;;;9.30;99.90;;;;;;5097293;28;20673;-78
2022/11/16 05:12:52;;;;;;;25.57;15.13;;;9.20;99.90;;;;;;5094935;28;20201;-78
2022/11/16 05:15:18;;;;;;;24.37;14.57;;;9.20;99.90;;;;;;5095581;28;20562;-78
2022/11/16 05:17:45;;;;;;;25.67;15.80;;;9.20;99.90;;;;;;5096676;28;20230;-78
2022/11/16 05:22:58;;;;;;;25.03;15.27;;;9.10;99.90;;;;;;5110847;28;20596;-78
2022/11/16 05:25:25;;;;;;;26.23;15.37;;;9.10;99.90;;;;;;5094988;28;20205;-78
2022/11/16 05:27:51;;;;;;;25.47;15.23;;;9.10;99.90;;;;;;5096327;28;20210;-78
2022/11/16 05:30:19;;;;;;;25.93;15.90;;;9.10;99.90;;;;;;5115528;28;20201;-78
2022/11/16 05:32:46;;;;;;;27.03;15.70;;;9.30;99.90;;;;;;5114852;28;20308;-78
2022/11/16 05:35:12;;;;;;;25.40;15.37;;;9.10;99.90;;;;;;5115069;28;20205;-78
2022/11/16 05:37:39;;;;;;;25.37;15.13;;;9.20;99.90;;;;;;5103138;28;20232;-78
2022/11/16 05:40:09;;;;;;;25.93;15.37;;;9.10;99.90;;;;;;5094589;28;20212;-78
2022/11/16 05:42:36;;;;;;;24.87;15.70;;;9.10;99.90;;;;;;5098371;28;20205;-82
2022/11/16 05:45:03;;;;;;;25.37;15.47;;;9.10;99.90;;;;;;5102791;28;20202;-78
2022/11/16 05:47:30;;;;;;;28.30;16.33;;;9.00;99.90;;;;;;5097834;28;20213;-78
2022/11/16 05:49:56;;;;;;;26.37;15.60;;;9.00;99.90;;;;;;5094003;28;20189;-78
2022/11/16 05:52:23;;;;;;;26.73;15.87;;;9.00;99.90;;;;;;5093925;28;20198;-78
2022/11/16 05:54:50;;;;;;;25.47;16.03;;;9.00;99.90;;;;;;5096757;28;20222;-78
2022/11/16 05:57:18;;;;;;;29.27;17.97;;;9.00;99.90;;;;;;5095983;28;20228;-78
2022/11/16 05:59:45;;;;;;;25.73;16.60;;;8.90;99.90;;;;;;5097450;28;20201;-78
2022/11/16 06:02:11;;;;;;;27.13;17.03;;;8.80;99.90;;;;;;5091665;28;20202;-78
2022/11/16 06:04:38;;;;;;;29.87;16.67;;;8.80;99.90;;;;;;5102040;28;20929;-78
2022/11/16 06:07:05;;;;;;;25.33;16.83;;;8.70;99.90;;;;;;5098002;28;20209;-78
2022/11/16 06:09:32;;;;;;;31.60;18.77;;;8.70;99.90;;;;;;5097124;28;20548;-78
2022/11/16 06:11:58;;;;;;;31.30;18.30;;;8.60;99.90;;;;;;5100187;28;20194;-78
2022/11/16 06:14:27;;;;;;;32.60;19.07;;;8.50;99.90;;;;;;5106053;28;20200;-79
2022/11/16 06:16:53;;;;;;;31.63;18.70;;;8.50;99.90;;;;;;5088316;28;20283;-78
2022/11/16 06:19:20;;;;;;;31.67;18.27;;;8.40;99.90;;;;;;5091353;28;20551;-78
2022/11/16 06:21:47;;;;;;;35.90;21.10;;;8.40;99.90;;;;;;5092370;28;20662;-78
2022/11/16 06:24:14;;;;;;;33.20;19.60;;;8.40;99.90;;;;;;5102541;28;20211;-78
2022/11/16 06:26:40;;;;;;;33.83;19.57;;;8.30;99.90;;;;;;5095929;28;20213;-78
2022/11/16 06:29:07;;;;;;;37.40;19.87;;;8.20;99.90;;;;;;5093650;28;20194;-78
2022/11/16 06:31:35;;;;;;;31.73;17.77;;;8.20;99.90;;;;;;5094284;28;20209;-78
2022/11/16 06:34:02;;;;;;;34.63;20.60;;;8.20;99.90;;;;;;5097671;28;20204;-78
2022/11/16 06:36:29;;;;;;;32.33;19.90;;;8.20;99.90;;;;;;5108266;28;20208;-78
2022/11/16 06:38:58;;;;;;;36.37;23.13;;;8.20;99.90;;;;;;5105718;28;20687;-79
2022/11/16 06:41:25;;;;;;;34.77;20.97;;;8.20;99.90;;;;;;5096207;28;20201;-79
2022/11/16 06:43:51;;;;;;;36.77;21.53;;;8.10;99.90;;;;;;5099149;28;20210;-79
2022/11/16 06:46:18;;;;;;;34.90;23.50;;;8.20;99.90;;;;;;5094493;28;20213;-79
2022/11/16 06:48:46;;;;;;;33.10;19.53;;;8.00;99.90;;;;;;5091602;28;20209;-78
2022/11/16 06:51:13;;;;;;;33.90;21.20;;;8.00;99.90;;;;;;5094876;28;20223;-79
2022/11/16 06:53:40;;;;;;;33.33;19.90;;;7.90;99.90;;;;;;5098880;28;20203;-79
2022/11/16 06:56:07;;;;;;;37.60;21.50;;;7.90;99.90;;;;;;5092450;28;20193;-79
2022/11/16 06:58:34;;;;;;;35.03;22.27;;;7.90;99.90;;;;;;5105450;28;20221;-80
2022/11/16 07:01:06;;;;;;;33.67;20.13;;;7.90;99.90;;;;;;5099227;28;20208;-80
2022/11/16 07:03:32;;;;;;;36.40;21.30;;;7.90;99.90;;;;;;5091252;28;20731;-80
2022/11/16 07:06:05;;;;;;;35.37;21.33;;;7.90;99.90;;;;;;5094548;28;20214;-80
2022/11/16 07:08:32;;;;;;;36.50;21.50;;;7.90;99.90;;;;;;5081202;28;20744;-78
2022/11/16 07:11:03;;;;;;;34.67;20.50;;;7.90;99.90;;;;;;5103408;28;20201;-78
2022/11/16 07:13:31;;;;;;;36.87;21.67;;;7.80;99.90;;;;;;5099742;28;20807;-78
2022/11/16 07:16:01;;;;;;;34.97;20.77;;;7.90;99.90;;;;;;5082193;28;20193;-78
2022/11/16 07:18:28;;;;;;;33.70;19.37;;;7.90;99.90;;;;;;5095075;28;20223;-78
2022/11/16 07:20:55;;;;;;;38.83;21.40;;;7.90;99.90;;;;;;5097810;28;20243;-78
2022/11/16 07:23:23;;;;;;;37.70;21.73;;;8.00;99.90;;;;;;5088612;28;20641;-78
2022/11/16 07:25:50;;;;;;;37.53;21.73;;;7.90;99.90;;;;;;5097505;28;20209;-78
2022/11/16 07:28:16;;;;;;;35.27;20.90;;;7.90;99.90;;;;;;5097800;28;20230;-78
2022/11/16 07:30:43;;;;;;;39.47;21.93;;;7.90;99.90;;;;;;5095123;28;20208;-78
2022/11/16 07:33:10;;;;;;;35.93;22.60;;;7.80;99.90;;;;;;5092206;28;20650;-78
2022/11/16 07:35:37;;;;;;;42.13;26.97;;;7.80;99.90;;;;;;5105463;28;20287;-79
2022/11/16 07:38:04;;;;;;;40.47;24.03;;;7.80;99.90;;;;;;5096851;28;20233;-79
2022/11/16 07:40:32;;;;;;;42.37;24.13;;;7.70;99.90;;;;;;5102423;28;20193;-78
2022/11/16 07:42:58;;;;;;;42.80;25.30;;;7.70;99.90;;;;;;5099894;28;20197;-78
2022/11/16 07:45:25;;;;;;;41.60;28.10;;;7.70;99.90;;;;;;5101911;28;20229;-79
2022/11/16 07:47:52;;;;;;;38.73;25.00;;;7.60;99.90;;;;;;5095384;28;20213;-78
2022/11/16 07:50:19;;;;;;;40.27;23.90;;;7.60;99.90;;;;;;5096242;28;20209;-78
2022/11/16 07:52:46;;;;;;;38.23;23.03;;;7.60;99.90;;;;;;5090231;28;20590;-78
2022/11/16 07:55:13;;;;;;;41.57;24.70;;;7.60;99.90;;;;;;5101196;28;20219;-77
2022/11/16 07:57:41;;;;;;;39.20;23.20;;;7.60;99.90;;;;;;5089484;28;20218;-77
2022/11/16 08:00:09;;;;;;;37.47;23.53;;;7.60;99.90;;;;;;5096518;28;20201;-78
2022/11/16 08:02:35;;;;;;;36.73;22.80;;;7.60;99.90;;;;;;5102381;28;20201;-78
2022/11/16 08:05:02;;;;;;;40.10;21.43;;;7.60;99.90;;;;;;5112516;28;20201;-78
2022/11/16 08:07:29;;;;;;;41.40;22.10;;;7.50;99.90;;;;;;5091058;28;20218;-78
2022/11/16 08:09:56;;;;;;;40.47;24.67;;;7.50;99.90;;;;;;5100568;28;20200;-78
2022/11/16 08:12:23;;;;;;;39.73;24.10;;;7.40;99.90;;;;;;5099182;28;20205;-78
2022/11/16 08:14:51;;;;;;;36.33;21.87;;;7.40;99.90;;;;;;5100411;28;20232;-77
2022/11/16 08:17:18;;;;;;;37.77;22.90;;;7.40;99.90;;;;;;5102984;28;20232;-78
2022/11/16 08:19:45;;;;;;;39.77;24.27;;;7.40;99.90;;;;;;5098787;28;20201;-78
2022/11/16 08:22:11;;;;;;;42.90;24.47;;;7.30;99.90;;;;;;5100436;28;20202;-79
2022/11/16 08:24:38;;;;;;;39.33;25.63;;;7.30;99.90;;;;;;5089611;28;20670;-78
2022/11/16 08:27:05;;;;;;;39.13;23.17;;;7.10;99.90;;;;;;5085321;28;20635;-77
2022/11/16 08:29:32;;;;;;;38.47;21.87;;;7.10;99.90;;;;;;5098179;28;20572;-77
2022/11/16 08:32:00;;;;;;;38.97;23.07;;;7.10;99.90;;;;;;5093375;28;20208;-79
2022/11/16 08:34:27;;;;;;;45.50;26.57;;;7.20;99.90;;;;;;5096025;28;20197;-79
2022/11/16 08:36:53;;;;;;;38.77;23.83;;;7.10;99.90;;;;;;5087928;28;20212;-79
2022/11/16 08:39:20;;;;;;;39.03;23.33;;;7.20;99.90;;;;;;5100943;28;20213;-78
2022/11/16 08:41:47;;;;;;;37.87;22.27;;;7.10;99.90;;;;;;5099560;28;20216;-78
2022/11/16 08:44:15;;;;;;;43.13;23.67;;;7.20;99.90;;;;;;5096591;28;20201;-78
2022/11/16 08:46:42;;;;;;;39.10;22.87;;;7.20;99.90;;;;;;5104765;28;20200;-78
2022/11/16 08:49:10;;;;;;;37.07;23.07;;;7.20;99.90;;;;;;5093908;28;20205;-78
2022/11/16 08:51:37;;;;;;;41.23;23.63;;;7.20;99.90;;;;;;5096304;28;20194;-78
2022/11/16 08:54:05;;;;;;;36.60;22.87;;;7.20;99.90;;;;;;5092959;28;20204;-80
2022/11/16 08:56:32;;;;;;;38.60;23.90;;;7.30;99.90;;;;;;5098058;28;20204;-82
2022/11/16 08:58:59;;;;;;;37.47;23.80;;;7.30;99.90;;;;;;5097214;28;20664;-82
2022/11/16 09:01:28;;;;;;;38.33;22.97;;;7.20;99.90;;;;;;5098561;28;20198;-81
2022/11/16 09:03:55;;;;;;;41.63;23.50;;;7.20;99.90;;;;;;5093872;28;20208;-81
2022/11/16 09:06:24;;;;;;;39.83;24.10;;;7.30;99.90;;;;;;5093102;28;20236;-79
2022/11/16 09:08:52;;;;;;;39.93;26.57;;;7.30;99.90;;;;;;5094030;28;20220;-80
2022/11/16 09:11:21;;;;;;;36.47;23.17;;;7.20;99.90;;;;;;5099985;28;20213;-80
2022/11/16 09:13:50;;;;;;;39.43;23.70;;;7.30;99.90;;;;;;5100302;28;20204;-80
2022/11/16 09:16:19;;;;;;;37.70;22.57;;;7.20;99.90;;;;;;5097734;28;20200;-79
2022/11/16 09:18:47;;;;;;;38.83;25.37;;;7.20;99.90;;;;;;5097082;28;20686;-80
2022/11/16 09:21:17;;;;;;;37.77;24.67;;;7.30;99.90;;;;;;5085948;28;20206;-79
2022/11/16 09:23:46;;;;;;;39.37;23.87;;;7.30;99.90;;;;;;5098537;28;20206;-80
2022/11/16 09:26:13;;;;;;;40.63;24.23;;;7.30;99.90;;;;;;5110953;28;20227;-79
2022/11/16 09:28:40;;;;;;;40.23;24.63;;;7.30;99.90;;;;;;5093860;28;20241;-78
2022/11/16 09:31:08;;;;;;;44.70;25.53;;;7.30;99.90;;;;;;5109292;28;20197;-80
2022/11/16 09:33:36;;;;;;;40.07;23.53;;;7.20;99.90;;;;;;5087131;28;20243;-79
2022/11/16 09:36:05;;;;;;;39.13;27.40;;;7.30;99.90;;;;;;5091460;28;20199;-80
2022/11/16 09:38:32;;;;;;;42.10;28.67;;;7.20;99.90;;;;;;5087006;28;20317;-80
2022/11/16 09:41:10;;;;;;;44.00;25.37;;;7.20;99.90;;;;;;5100540;28;20193;-80
2022/11/16 09:43:45;;;;;;;42.13;25.53;;;7.30;99.90;;;;;;5085809;28;20575;-80
2022/11/16 09:46:21;;;;;;;43.33;26.20;;;7.20;99.90;;;;;;5095591;28;20205;-81
2022/11/16 09:48:49;;;;;;;40.60;24.37;;;7.20;99.90;;;;;;5101888;28;20232;-80
2022/11/16 09:51:18;;;;;;;41.57;25.07;;;7.20;99.90;;;;;;5099611;28;20202;-81
2022/11/16 09:53:47;;;;;;;41.10;25.00;;;7.20;99.90;;;;;;5096428;28;20223;-81
2022/11/16 09:56:20;;;;;;;44.87;25.73;;;7.20;99.90;;;;;;5098416;28;20235;-81
2022/11/16 09:58:53;;;;;;;43.53;25.40;;;7.20;99.90;;;;;;5088095;28;20797;-80
2022/11/16 10:01:26;;;;;;;44.30;26.77;;;7.20;99.90;;;;;;5087944;28;20206;-80
2022/11/16 10:04:00;;;;;;;38.90;24.17;;;7.20;99.90;;;;;;5096253;28;20207;-80
2022/11/16 10:06:36;;;;;;;43.17;24.27;;;7.20;99.90;;;;;;5092409;28;20198;-80
2022/11/16 10:09:03;;;;;;;42.10;26.63;;;7.20;99.90;;;;;;5095589;28;20208;-80
2022/11/16 10:11:47;;;;;;;43.07;25.07;;;7.20;99.90;;;;;;5096612;28;20201;-80
2022/11/16 10:14:44;;;;;;;41.70;28.23;;;7.20;99.90;;;;;;5094843;28;20206;-82
2022/11/16 10:17:20;;;;;;;40.90;24.27;;;7.10;99.90;;;;;;5092690;28;20597;-81
2022/11/16 10:19:53;;;;;;;38.27;23.83;;;7.10;99.90;;;;;;5086775;28;20218;-80
2022/11/16 10:22:34;;;;;;;42.73;25.63;;;7.20;99.90;;;;;;5095626;28;20205;-80
2022/11/16 10:25:09;;;;;;;41.50;25.37;;;7.20;99.90;;;;;;5101540;28;20227;-81
2022/11/16 10:27:48;;;;;;;41.27;24.97;;;7.20;99.90;;;;;;5090783;28;20229;-80
2022/11/16 10:30:17;;;;;;;37.00;26.20;;;7.20;99.90;;;;;;5091673;28;20202;-79
2022/11/16 10:32:49;;;;;;;39.83;24.53;;;7.20;99.90;;;;;;5094795;28;20227;-79
2022/11/16 10:35:19;;;;;;;39.33;23.17;;;7.30;99.90;;;;;;5083440;28;20724;-79
2022/11/16 10:37:48;;;;;;;37.73;22.73;;;7.30;99.90;;;;;;5097895;28;20229;-79
2022/11/16 10:40:23;;;;;;;40.00;23.43;;;7.30;99.90;;;;;;5093620;28;20209;-79
2022/11/16 10:42:58;;;;;;;41.57;24.60;;;7.30;99.90;;;;;;5095507;28;21748;-80
2022/11/16 10:45:33;;;;;;;39.07;27.47;;;7.30;99.90;;;;;;5098903;28;20200;-80
2022/11/16 10:48:06;;;;;;;40.93;27.67;;;7.40;99.90;;;;;;5079638;28;20218;-79
2022/11/16 10:50:37;;;;;;;41.17;23.90;;;7.30;99.90;;;;;;5089827;28;20645;-79
2022/11/16 10:53:04;;;;;;;40.93;23.97;;;7.30;99.90;;;;;;5089440;28;20202;-79
2022/11/16 10:55:31;;;;;;;41.03;24.07;;;7.30;99.90;;;;;;5093785;28;20545;-79
2022/11/16 10:58:01;;;;;;;35.73;22.90;;;7.30;99.90;;;;;;5090641;28;20217;-80
2022/11/16 11:00:43;;;;;;;40.17;24.43;;;7.30;99.90;;;;;;5092522;28;20194;-79
2022/11/16 11:03:10;;;;;;;39.57;23.30;;;7.30;99.90;;;;;;5091261;28;20198;-79
2022/11/16 11:05:47;;;;;;;38.03;22.93;;;7.30;99.90;;;;;;5085240;28;20290;-79
2022/11/16 11:08:23;;;;;;;39.50;26.73;;;7.30;99.90;;;;;;5096496;28;20278;-79
2022/11/16 11:11:00;;;;;;;38.10;26.50;;;7.30;99.90;;;;;;5080948;28;20193;-79
2022/11/16 11:13:29;;;;;;;37.37;22.93;;;7.30;99.90;;;;;;5093386;28;20721;-80
2022/11/16 11:16:14;;;;;;;37.87;23.90;;;7.40;99.90;;;;;;5095465;28;20202;-80
2022/11/16 11:18:41;;;;;;;39.83;22.87;;;7.30;99.90;;;;;;5093120;28;20320;-79
2022/11/16 11:21:13;;;;;;;37.37;23.00;;;7.30;99.90;;;;;;5097810;28;20204;-79
2022/11/16 11:23:46;;;;;;;36.77;22.70;;;7.20;99.90;;;;;;5107581;28;20198;-79
2022/11/16 11:26:32;;;;;;;38.53;23.23;;;7.30;99.90;;;;;;5095160;28;20212;-80
2022/11/16 11:29:02;;;;;;;38.50;22.57;;;7.20;99.90;;;;;;5090309;28;20664;-80
2022/11/16 11:31:35;;;;;;;37.07;21.87;;;7.30;99.90;;;;;;5094496;28;20197;-79
2022/11/16 11:34:15;;;;;;;36.20;21.83;;;7.30;99.90;;;;;;5090422;28;20208;-79
2022/11/16 11:36:45;;;;;;;38.63;21.90;;;7.30;99.90;;;;;;5101901;28;20207;-79
2022/11/16 11:39:33;;;;;;;36.63;22.33;;;7.30;99.90;;;;;;5094848;28;20235;-81
2022/11/16 11:42:03;;;;;;;38.77;21.80;;;7.30;99.90;;;;;;5100616;28;20212;-81
2022/11/16 11:44:38;;;;;;;36.87;20.93;;;7.40;99.90;;;;;;5090792;28;20280;-83
2022/11/16 11:47:23;;;;;;;35.10;20.87;;;7.30;99.90;;;;;;5092451;28;20217;-81
2022/11/16 11:49:57;;;;;;;37.83;21.53;;;7.30;99.90;;;;;;5093759;28;21211;-80
2022/11/16 11:52:34;;;;;;;40.60;21.97;;;7.20;99.90;;;;;;5094095;28;20566;-80
2022/11/16 11:55:02;;;;;;;41.47;22.47;;;7.30;99.90;;;;;;5107463;28;20197;-80
2022/11/16 11:57:32;;;;;;;35.00;20.97;;;7.30;99.90;;;;;;5094867;28;20301;-80
2022/11/16 12:00:03;;;;;;;37.43;21.10;;;7.30;99.90;;;;;;5099750;28;20709;-80
2022/11/16 12:02:45;;;;;;;34.93;20.73;;;7.30;99.90;;;;;;5090180;28;20201;-81
2022/11/16 12:05:43;;;;;;;35.80;20.40;;;7.30;99.90;;;;;;5105002;28;20666;-81
2022/11/16 12:08:27;;;;;;;38.10;21.07;;;7.30;99.90;;;;;;5087791;28;20234;-82
2022/11/16 12:11:00;;;;;;;35.70;19.63;;;7.30;99.90;;;;;;5094608;28;20216;-80
2022/11/16 12:13:41;;;;;;;35.93;20.07;;;7.40;99.90;;;;;;5089872;28;20545;-80
2022/11/16 12:16:19;;;;;;;34.20;19.50;;;7.40;99.90;;;;;;5096268;28;20197;-80
2022/11/16 12:19:11;;;;;;;33.50;20.37;;;7.40;99.90;;;;;;5098128;28;20224;-81
2022/11/16 12:21:50;;;;;;;32.60;18.60;;;7.50;99.90;;;;;;5095165;28;20230;-80
2022/11/16 12:24:33;;;;;;;36.33;22.53;;;7.50;99.90;;;;;;5089918;28;20573;-81
2022/11/16 12:27:14;;;;;;;36.27;20.20;;;7.40;99.90;;;;;;5091833;28;20222;-81
2022/11/16 12:29:52;;;;;;;33.50;17.77;;;7.50;99.90;;;;;;5094209;28;20204;-79
2022/11/16 12:32:47;;;;;;;34.30;18.87;;;7.40;99.90;;;;;;5095757;28;20198;-80
2022/11/16 12:35:39;;;;;;;33.77;18.30;;;7.50;99.90;;;;;;5088025;28;20209;-80
2022/11/16 12:38:20;;;;;;;30.93;20.00;;;7.60;99.90;;;;;;5101796;28;20221;-80
2022/11/16 12:41:01;;;;;;;32.67;20.07;;;7.60;99.90;;;;;;5095185;28;20288;-79
2022/11/16 12:43:36;;;;;;;32.90;21.57;;;7.50;99.90;;;;;;5093384;28;20193;-79
2022/11/16 12:46:14;;;;;;;34.77;18.97;;;7.60;99.90;;;;;;5099769;28;20837;-80
2022/11/16 12:49:19;;;;;;;29.27;16.27;;;7.60;99.90;;;;;;5086298;28;20839;-80
2022/11/16 12:51:59;;;;;;;30.17;18.43;;;7.60;99.90;;;;;;5097801;28;20250;-80
2022/11/16 12:54:48;;;;;;;29.00;16.40;;;7.70;99.90;;;;;;5096982;28;20207;-81
2022/11/16 12:57:21;;;;;;;26.57;15.43;;;7.60;99.90;;;;;;5098317;28;20225;-80
2022/11/16 13:00:02;;;;;;;29.70;17.17;;;7.60;99.90;;;;;;5107104;28;20734;-80
2022/11/16 13:02:46;;;;;;;27.50;16.70;;;7.60;99.90;;;;;;5098581;28;20220;-79
2022/11/16 13:05:20;;;;;;;26.63;15.13;;;7.50;99.90;;;;;;5081804;28;20212;-80
2022/11/16 13:07:52;;;;;;;29.40;16.23;;;7.50;99.90;;;;;;5096647;28;20221;-79
2022/11/16 13:10:22;;;;;;;26.30;14.70;;;7.60;99.90;;;;;;5104101;28;20200;-79
2022/11/16 13:12:53;;;;;;;29.83;17.97;;;7.60;99.90;;;;;;5091331;28;20307;-79
2022/11/16 13:15:25;;;;;;;28.27;15.57;;;7.60;99.90;;;;;;5095844;28;20568;-81
2022/11/16 13:17:56;;;;;;;29.43;16.73;;;7.60;99.90;;;;;;5093828;28;21291;-80
2022/11/16 13:20:35;;;;;;;27.80;15.77;;;7.50;99.90;;;;;;5099567;28;20222;-80
2022/11/16 13:23:06;;;;;;;28.27;18.37;;;7.60;99.90;;;;;;5094697;28;20205;-81
2022/11/16 13:25:38;;;;;;;31.13;18.67;;;7.60;99.90;;;;;;5100866;28;20212;-81
2022/11/16 13:28:16;;;;;;;30.03;16.30;;;7.60;99.90;;;;;;5088082;28;20765;-81
2022/11/16 13:30:51;;;;;;;31.37;16.57;;;7.60;99.90;;;;;;5101497;28;20240;-81
2022/11/16 13:33:30;;;;;;;27.00;15.17;;;7.60;99.90;;;;;;5095333;28;20628;-80